sensor_id;sensor_type;location;lat;lon;timestamp;temperature;humidity
62904;DHT22;49000;50.698;13.322;2023-02-18T00:01:25;8.10;99.90
62904;DHT22;49000;50.698;13.322;2023-02-18T00:03:51;8.10;99.90
62904;DHT22;49000;50.698;13.322;2023-02-18T00:06:23;8.00;99.90
62904;DHT22;49000;50.698;13.322;2023-02-18T00:08:49;8.10;99.90
62904;DHT22;49000;50.698;13.322;2023-02-18T00:11:16;7.70;99.90
62904;DHT22;49000;50.698;13.322;2023-02-18T00:13:42;7.80;99.90
62904;DHT22;49000;50.698;13.322;2023-02-18T00:16:10;7.40;99.90
62904;DHT22;49000;50.698;13.322;2023-02-18T00:18:36;7.50;99.90
62904;DHT22;49000;50.698;13.322;2023-02-18T00:21:03;7.70;99.90
62904;DHT22;49000;50.698;13.322;2023-02-18T00:23:29;7.60;99.90
62904;DHT22;49000;50.698;13.322;2023-02-18T00:26:05;7.60;99.90
62904;DHT22;49000;50.698;13.322;2023-02-18T00:28:31;7.40;99.90
62904;DHT22;49000;50.698;13.322;2023-02-18T00:30:57;7.20;99.90
62904;DHT22;49000;50.698;13.322;2023-02-18T00:33:23;7.30;99.90
62904;DHT22;49000;50.698;13.322;2023-02-18T00:35:48;7.50;99.90
62904;DHT22;49000;50.698;13.322;2023-02-18T00:38:14;7.80;99.90
62904;DHT22;49000;50.698;13.322;2023-02-18T00:40:39;7.50;99.90
62904;DHT22;49000;50.698;13.322;2023-02-18T00:43:06;7.70;99.90
62904;DHT22;49000;50.698;13.322;2023-02-18T00:45:31;7.00;99.90
62904;DHT22;49000;50.698;13.322;2023-02-18T00:47:57;7.10;99.90
62904;DHT22;49000;50.698;13.322;2023-02-18T00:50:22;7.50;99.90
62904;DHT22;49000;50.698;13.322;2023-02-18T00:52:48;7.30;99.90
62904;DHT22;49000;50.698;13.322;2023-02-18T00:55:13;7.40;99.90
62904;DHT22;49000;50.698;13.322;2023-02-18T00:57:39;7.20;99.90
62904;DHT22;49000;50.698;13.322;2023-02-18T01:00:06;7.60;99.90
62904;DHT22;49000;50.698;13.322;2023-02-18T01:02:32;7.40;99.90
62904;DHT22;49000;50.698;13.322;2023-02-18T01:04:57;7.40;99.90
62904;DHT22;49000;50.698;13.322;2023-02-18T01:07:23;7.40;99.90
62904;DHT22;49000;50.698;13.322;2023-02-18T01:09:48;7.10;99.90
62904;DHT22;49000;50.698;13.322;2023-02-18T01:12:14;7.30;99.90
62904;DHT22;49000;50.698;13.322;2023-02-18T01:14:39;7.00;99.90
62904;DHT22;49000;50.698;13.322;2023-02-18T01:17:05;7.00;99.90
62904;DHT22;49000;50.698;13.322;2023-02-18T01:19:30;7.40;99.90
62904;DHT22;49000;50.698;13.322;2023-02-18T01:21:56;7.40;99.90
62904;DHT22;49000;50.698;13.322;2023-02-18T01:24:21;7.00;99.90
62904;DHT22;49000;50.698;13.322;2023-02-18T01:26:47;7.40;99.90
62904;DHT22;49000;50.698;13.322;2023-02-18T01:29:12;7.00;99.90
62904;DHT22;49000;50.698;13.322;2023-02-18T01:31:38;7.00;99.90
62904;DHT22;49000;50.698;13.322;2023-02-18T01:34:03;7.40;99.90
62904;DHT22;49000;50.698;13.322;2023-02-18T01:36:29;7.40;99.90
62904;DHT22;49000;50.698;13.322;2023-02-18T01:38:54;7.30;99.90
62904;DHT22;49000;50.698;13.322;2023-02-18T01:41:20;7.40;99.90
62904;DHT22;49000;50.698;13.322;2023-02-18T01:43:45;7.40;99.90
62904;DHT22;49000;50.698;13.322;2023-02-18T01:46:12;7.20;99.90
62904;DHT22;49000;50.698;13.322;2023-02-18T01:48:56;7.30;99.90
62904;DHT22;49000;50.698;13.322;2023-02-18T01:51:29;7.20;99.90
62904;DHT22;49000;50.698;13.322;2023-02-18T01:54:04;6.90;99.90
62904;DHT22;49000;50.698;13.322;2023-02-18T01:56:39;7.30;99.90
62904;DHT22;49000;50.698;13.322;2023-02-18T01:59:10;7.10;99.90
62904;DHT22;49000;50.698;13.322;2023-02-18T02:01:38;7.50;99.90
62904;DHT22;49000;50.698;13.322;2023-02-18T02:04:05;7.10;99.90
62904;DHT22;49000;50.698;13.322;2023-02-18T02:06:31;7.10;99.90
62904;DHT22;49000;50.698;13.322;2023-02-18T02:08:58;7.30;99.90
62904;DHT22;49000;50.698;13.322;2023-02-18T02:11:36;6.80;99.90
62904;DHT22;49000;50.698;13.322;2023-02-18T02:14:07;6.80;99.90
62904;DHT22;49000;50.698;13.322;2023-02-18T02:17:02;7.00;99.90
62904;DHT22;49000;50.698;13.322;2023-02-18T02:22:51;7.20;99.90
62904;DHT22;49000;50.698;13.322;2023-02-18T02:25:40;7.30;99.90
62904;DHT22;49000;50.698;13.322;2023-02-18T02:28:43;7.30;99.90
62904;DHT22;49000;50.698;13.322;2023-02-18T02:31:36;7.20;99.90
62904;DHT22;49000;50.698;13.322;2023-02-18T02:45:53;7.10;99.90
62904;DHT22;49000;50.698;13.322;2023-02-18T02:51:27;7.30;99.90
62904;DHT22;49000;50.698;13.322;2023-02-18T02:53:54;7.00;99.90
62904;DHT22;49000;50.698;13.322;2023-02-18T02:56:22;7.10;99.90
62904;DHT22;49000;50.698;13.322;2023-02-18T02:59:00;6.80;99.90
62904;DHT22;49000;50.698;13.322;2023-02-18T03:10:46;7.20;99.90
62904;DHT22;49000;50.698;13.322;2023-02-18T03:13:20;6.50;99.90
62904;DHT22;49000;50.698;13.322;2023-02-18T03:15:54;6.70;99.90
62904;DHT22;49000;50.698;13.322;2023-02-18T03:18:37;6.70;99.90
62904;DHT22;49000;50.698;13.322;2023-02-18T03:21:15;6.60;99.90
62904;DHT22;49000;50.698;13.322;2023-02-18T03:24:01;6.50;99.90
62904;DHT22;49000;50.698;13.322;2023-02-18T03:26:29;6.80;99.90
62904;DHT22;49000;50.698;13.322;2023-02-18T03:28:59;6.60;99.90
62904;DHT22;49000;50.698;13.322;2023-02-18T03:31:27;6.50;99.90
62904;DHT22;49000;50.698;13.322;2023-02-18T03:34:16;6.50;99.90
62904;DHT22;49000;50.698;13.322;2023-02-18T03:36:43;6.50;99.90
62904;DHT22;49000;50.698;13.322;2023-02-18T03:39:13;6.90;99.90
62904;DHT22;49000;50.698;13.322;2023-02-18T03:41:39;6.80;99.90
62904;DHT22;49000;50.698;13.322;2023-02-18T03:44:06;6.50;99.90
62904;DHT22;49000;50.698;13.322;2023-02-18T03:46:33;6.70;99.90
62904;DHT22;49000;50.698;13.322;2023-02-18T03:48:59;6.80;99.90
62904;DHT22;49000;50.698;13.322;2023-02-18T03:51:25;6.90;99.90
62904;DHT22;49000;50.698;13.322;2023-02-18T03:53:50;6.60;99.90
62904;DHT22;49000;50.698;13.322;2023-02-18T03:56:16;6.50;99.90
62904;DHT22;49000;50.698;13.322;2023-02-18T03:58:42;6.90;99.90
62904;DHT22;49000;50.698;13.322;2023-02-18T04:01:08;6.50;99.90
62904;DHT22;49000;50.698;13.322;2023-02-18T04:03:33;6.40;99.90
62904;DHT22;49000;50.698;13.322;2023-02-18T04:05:59;6.50;99.90
62904;DHT22;49000;50.698;13.322;2023-02-18T04:08:24;7.00;99.90
62904;DHT22;49000;50.698;13.322;2023-02-18T04:10:50;6.90;99.90
62904;DHT22;49000;50.698;13.322;2023-02-18T04:13:15;6.90;99.90
62904;DHT22;49000;50.698;13.322;2023-02-18T04:15:45;6.90;99.90
62904;DHT22;49000;50.698;13.322;2023-02-18T04:18:13;7.00;99.90
62904;DHT22;49000;50.698;13.322;2023-02-18T04:20:38;6.70;99.90
62904;DHT22;49000;50.698;13.322;2023-02-18T04:23:04;6.50;99.90
62904;DHT22;49000;50.698;13.322;2023-02-18T04:25:30;6.90;99.90
62904;DHT22;49000;50.698;13.322;2023-02-18T04:27:55;7.20;99.90
62904;DHT22;49000;50.698;13.322;2023-02-18T04:30:21;6.70;99.90
62904;DHT22;49000;50.698;13.322;2023-02-18T04:32:47;7.10;99.90
62904;DHT22;49000;50.698;13.322;2023-02-18T04:35:12;7.10;99.90
62904;DHT22;49000;50.698;13.322;2023-02-18T04:37:38;7.10;99.90
62904;DHT22;49000;50.698;13.322;2023-02-18T04:40:04;6.80;99.90
62904;DHT22;49000;50.698;13.322;2023-02-18T04:42:29;7.00;99.90
62904;DHT22;49000;50.698;13.322;2023-02-18T04:44:55;7.00;99.90
62904;DHT22;49000;50.698;13.322;2023-02-18T04:47:20;6.90;99.90
62904;DHT22;49000;50.698;13.322;2023-02-18T04:49:46;6.70;99.90
62904;DHT22;49000;50.698;13.322;2023-02-18T04:52:11;6.70;99.90
62904;DHT22;49000;50.698;13.322;2023-02-18T04:54:37;6.40;99.90
62904;DHT22;49000;50.698;13.322;2023-02-18T04:57:02;6.80;99.90
62904;DHT22;49000;50.698;13.322;2023-02-18T04:59:28;7.10;99.90
62904;DHT22;49000;50.698;13.322;2023-02-18T05:01:53;6.80;99.90
62904;DHT22;49000;50.698;13.322;2023-02-18T05:04:19;6.80;99.90
62904;DHT22;49000;50.698;13.322;2023-02-18T05:06:45;6.80;99.90
62904;DHT22;49000;50.698;13.322;2023-02-18T05:09:11;6.50;99.90
62904;DHT22;49000;50.698;13.322;2023-02-18T05:11:36;7.00;99.90
62904;DHT22;49000;50.698;13.322;2023-02-18T05:14:02;7.00;99.90
62904;DHT22;49000;50.698;13.322;2023-02-18T05:16:28;6.70;99.90
62904;DHT22;49000;50.698;13.322;2023-02-18T05:18:53;6.80;99.90
62904;DHT22;49000;50.698;13.322;2023-02-18T05:21:18;6.90;99.90
62904;DHT22;49000;50.698;13.322;2023-02-18T05:23:44;6.60;99.90
62904;DHT22;49000;50.698;13.322;2023-02-18T05:26:09;6.50;99.90
62904;DHT22;49000;50.698;13.322;2023-02-18T05:28:35;6.90;99.90
62904;DHT22;49000;50.698;13.322;2023-02-18T05:31:00;6.50;99.90
62904;DHT22;49000;50.698;13.322;2023-02-18T05:33:26;7.00;99.90
62904;DHT22;49000;50.698;13.322;2023-02-18T05:35:52;6.90;99.90
62904;DHT22;49000;50.698;13.322;2023-02-18T05:38:17;6.70;99.90
62904;DHT22;49000;50.698;13.322;2023-02-18T05:40:43;6.60;99.90
62904;DHT22;49000;50.698;13.322;2023-02-18T05:43:08;7.10;99.90
62904;DHT22;49000;50.698;13.322;2023-02-18T05:45:34;6.90;99.90
62904;DHT22;49000;50.698;13.322;2023-02-18T05:48:00;6.90;99.90
62904;DHT22;49000;50.698;13.322;2023-02-18T05:50:25;6.80;99.90
62904;DHT22;49000;50.698;13.322;2023-02-18T05:52:50;6.50;99.90
62904;DHT22;49000;50.698;13.322;2023-02-18T05:55:16;6.60;99.90
62904;DHT22;49000;50.698;13.322;2023-02-18T05:57:41;7.00;99.90
62904;DHT22;49000;50.698;13.322;2023-02-18T06:00:07;6.90;99.90
62904;DHT22;49000;50.698;13.322;2023-02-18T06:02:37;7.10;99.90
62904;DHT22;49000;50.698;13.322;2023-02-18T06:05:04;6.90;99.90
62904;DHT22;49000;50.698;13.322;2023-02-18T06:07:29;7.00;99.90
62904;DHT22;49000;50.698;13.322;2023-02-18T06:09:55;6.70;99.90
62904;DHT22;49000;50.698;13.322;2023-02-18T06:12:21;6.80;99.90
62904;DHT22;49000;50.698;13.322;2023-02-18T06:14:47;6.60;99.90
62904;DHT22;49000;50.698;13.322;2023-02-18T06:17:13;6.80;99.90
62904;DHT22;49000;50.698;13.322;2023-02-18T06:19:39;6.70;99.90
62904;DHT22;49000;50.698;13.322;2023-02-18T06:22:06;7.10;99.90
62904;DHT22;49000;50.698;13.322;2023-02-18T06:24:32;6.50;99.90
62904;DHT22;49000;50.698;13.322;2023-02-18T06:26:57;6.60;99.90
62904;DHT22;49000;50.698;13.322;2023-02-18T06:29:23;7.00;99.90
62904;DHT22;49000;50.698;13.322;2023-02-18T06:31:49;7.00;99.90
62904;DHT22;49000;50.698;13.322;2023-02-18T06:34:14;7.10;99.90
62904;DHT22;49000;50.698;13.322;2023-02-18T06:36:40;7.00;99.90
62904;DHT22;49000;50.698;13.322;2023-02-18T06:39:06;7.00;99.90
62904;DHT22;49000;50.698;13.322;2023-02-18T06:41:32;7.10;99.90
62904;DHT22;49000;50.698;13.322;2023-02-18T06:43:57;7.10;99.90
62904;DHT22;49000;50.698;13.322;2023-02-18T06:46:23;7.40;99.90
62904;DHT22;49000;50.698;13.322;2023-02-18T06:48:48;6.70;99.90
62904;DHT22;49000;50.698;13.322;2023-02-18T06:51:14;7.00;99.90
62904;DHT22;49000;50.698;13.322;2023-02-18T06:53:41;7.20;99.90
62904;DHT22;49000;50.698;13.322;2023-02-18T06:56:06;7.20;99.90
62904;DHT22;49000;50.698;13.322;2023-02-18T06:58:32;6.80;99.90
62904;DHT22;49000;50.698;13.322;2023-02-18T07:00:57;7.00;99.90
62904;DHT22;49000;50.698;13.322;2023-02-18T07:03:23;7.20;99.90
62904;DHT22;49000;50.698;13.322;2023-02-18T07:05:48;6.90;99.90
62904;DHT22;49000;50.698;13.322;2023-02-18T07:08:14;6.80;99.90
62904;DHT22;49000;50.698;13.322;2023-02-18T07:10:39;7.00;99.90
62904;DHT22;49000;50.698;13.322;2023-02-18T07:13:05;7.00;99.90
62904;DHT22;49000;50.698;13.322;2023-02-18T07:15:30;7.30;99.90
62904;DHT22;49000;50.698;13.322;2023-02-18T07:17:56;7.40;99.90
62904;DHT22;49000;50.698;13.322;2023-02-18T07:20:22;7.10;99.90
62904;DHT22;49000;50.698;13.322;2023-02-18T07:22:48;7.30;99.90
62904;DHT22;49000;50.698;13.322;2023-02-18T07:25:14;7.40;99.90
62904;DHT22;49000;50.698;13.322;2023-02-18T07:27:39;7.50;99.90
62904;DHT22;49000;50.698;13.322;2023-02-18T07:30:06;7.50;99.90
62904;DHT22;49000;50.698;13.322;2023-02-18T07:32:31;7.60;99.90
62904;DHT22;49000;50.698;13.322;2023-02-18T07:34:57;7.50;99.90
62904;DHT22;49000;50.698;13.322;2023-02-18T07:37:22;7.60;99.90
62904;DHT22;49000;50.698;13.322;2023-02-18T07:39:48;7.40;99.90
62904;DHT22;49000;50.698;13.322;2023-02-18T07:42:13;7.60;99.90
62904;DHT22;49000;50.698;13.322;2023-02-18T07:44:39;7.40;99.90
62904;DHT22;49000;50.698;13.322;2023-02-18T07:47:07;7.70;99.90
62904;DHT22;49000;50.698;13.322;2023-02-18T07:49:33;7.90;99.90
62904;DHT22;49000;50.698;13.322;2023-02-18T07:51:59;7.80;99.90
62904;DHT22;49000;50.698;13.322;2023-02-18T07:54:24;8.00;99.90
62904;DHT22;49000;50.698;13.322;2023-02-18T07:56:50;8.10;99.90
62904;DHT22;49000;50.698;13.322;2023-02-18T07:59:16;7.60;99.90
62904;DHT22;49000;50.698;13.322;2023-02-18T08:01:41;8.00;99.90
62904;DHT22;49000;50.698;13.322;2023-02-18T08:04:07;8.00;99.90
62904;DHT22;49000;50.698;13.322;2023-02-18T08:06:40;8.10;99.90
62904;DHT22;49000;50.698;13.322;2023-02-18T08:09:07;8.10;99.90
62904;DHT22;49000;50.698;13.322;2023-02-18T08:11:32;8.10;99.90
62904;DHT22;49000;50.698;13.322;2023-02-18T08:13:58;8.10;99.90
62904;DHT22;49000;50.698;13.322;2023-02-18T08:16:24;8.30;99.90
62904;DHT22;49000;50.698;13.322;2023-02-18T08:18:51;8.10;99.90
62904;DHT22;49000;50.698;13.322;2023-02-18T08:21:18;8.40;99.90
62904;DHT22;49000;50.698;13.322;2023-02-18T08:23:44;8.40;99.90
62904;DHT22;49000;50.698;13.322;2023-02-18T08:26:10;8.40;99.90
62904;DHT22;49000;50.698;13.322;2023-02-18T08:28:35;8.40;99.90
62904;DHT22;49000;50.698;13.322;2023-02-18T08:31:01;8.50;99.90
62904;DHT22;49000;50.698;13.322;2023-02-18T08:33:27;8.50;99.90
62904;DHT22;49000;50.698;13.322;2023-02-18T08:35:53;8.50;99.90
62904;DHT22;49000;50.698;13.322;2023-02-18T08:38:19;8.60;99.90
62904;DHT22;49000;50.698;13.322;2023-02-18T08:40:45;8.60;99.90
62904;DHT22;49000;50.698;13.322;2023-02-18T08:43:11;8.60;99.90
62904;DHT22;49000;50.698;13.322;2023-02-18T08:45:38;8.70;99.90
62904;DHT22;49000;50.698;13.322;2023-02-18T08:48:05;8.70;99.90
62904;DHT22;49000;50.698;13.322;2023-02-18T08:50:31;8.70;99.90
62904;DHT22;49000;50.698;13.322;2023-02-18T08:52:56;8.70;99.90
62904;DHT22;49000;50.698;13.322;2023-02-18T08:55:24;8.80;99.90
62904;DHT22;49000;50.698;13.322;2023-02-18T08:57:51;8.80;99.90
62904;DHT22;49000;50.698;13.322;2023-02-18T09:00:17;8.90;99.90
62904;DHT22;49000;50.698;13.322;2023-02-18T09:02:43;8.70;99.90
62904;DHT22;49000;50.698;13.322;2023-02-18T09:05:09;9.00;99.90
62904;DHT22;49000;50.698;13.322;2023-02-18T09:07:36;8.90;99.90
62904;DHT22;49000;50.698;13.322;2023-02-18T09:10:02;8.90;99.90
62904;DHT22;49000;50.698;13.322;2023-02-18T09:12:28;8.90;99.90
62904;DHT22;49000;50.698;13.322;2023-02-18T09:14:54;8.80;99.90
62904;DHT22;49000;50.698;13.322;2023-02-18T09:17:19;8.80;99.90
62904;DHT22;49000;50.698;13.322;2023-02-18T09:19:45;8.80;99.90
62904;DHT22;49000;50.698;13.322;2023-02-18T09:22:10;8.80;99.90
62904;DHT22;49000;50.698;13.322;2023-02-18T09:24:39;8.80;99.90
62904;DHT22;49000;50.698;13.322;2023-02-18T09:27:05;8.80;99.90
62904;DHT22;49000;50.698;13.322;2023-02-18T09:29:31;8.90;99.90
62904;DHT22;49000;50.698;13.322;2023-02-18T09:32:00;8.80;99.90
62904;DHT22;49000;50.698;13.322;2023-02-18T09:34:27;8.80;99.90
62904;DHT22;49000;50.698;13.322;2023-02-18T09:36:52;8.80;99.90
62904;DHT22;49000;50.698;13.322;2023-02-18T09:39:19;8.80;99.90
62904;DHT22;49000;50.698;13.322;2023-02-18T09:42:00;8.80;99.90
62904;DHT22;49000;50.698;13.322;2023-02-18T09:44:51;8.80;99.90
62904;DHT22;49000;50.698;13.322;2023-02-18T09:47:36;8.90;99.90
62904;DHT22;49000;50.698;13.322;2023-02-18T09:50:23;8.90;99.90
62904;DHT22;49000;50.698;13.322;2023-02-18T09:52:51;8.90;99.90
62904;DHT22;49000;50.698;13.322;2023-02-18T09:57:51;8.90;99.90
62904;DHT22;49000;50.698;13.322;2023-02-18T10:00:34;8.90;99.90
62904;DHT22;49000;50.698;13.322;2023-02-18T10:03:01;8.90;99.90
62904;DHT22;49000;50.698;13.322;2023-02-18T10:05:29;8.90;99.90
62904;DHT22;49000;50.698;13.322;2023-02-18T10:08:06;8.80;99.90
62904;DHT22;49000;50.698;13.322;2023-02-18T10:10:36;8.80;99.90
62904;DHT22;49000;50.698;13.322;2023-02-18T10:13:04;8.80;99.90
62904;DHT22;49000;50.698;13.322;2023-02-18T10:15:31;8.90;99.90
62904;DHT22;49000;50.698;13.322;2023-02-18T10:17:57;8.90;99.90
62904;DHT22;49000;50.698;13.322;2023-02-18T10:20:26;9.00;99.90
62904;DHT22;49000;50.698;13.322;2023-02-18T10:22:54;9.00;99.90
62904;DHT22;49000;50.698;13.322;2023-02-18T10:25:22;9.00;99.90
62904;DHT22;49000;50.698;13.322;2023-02-18T10:27:51;9.10;99.90
62904;DHT22;49000;50.698;13.322;2023-02-18T10:30:21;9.10;99.90
62904;DHT22;49000;50.698;13.322;2023-02-18T10:32:54;9.20;99.90
62904;DHT22;49000;50.698;13.322;2023-02-18T10:35:28;9.20;99.90
62904;DHT22;49000;50.698;13.322;2023-02-18T10:38:06;9.30;99.90
62904;DHT22;49000;50.698;13.322;2023-02-18T10:43:26;9.30;99.90
62904;DHT22;49000;50.698;13.322;2023-02-18T10:46:06;9.40;99.90
62904;DHT22;49000;50.698;13.322;2023-02-18T10:51:25;9.40;99.90
62904;DHT22;49000;50.698;13.322;2023-02-18T10:53:53;9.40;99.90
62904;DHT22;49000;50.698;13.322;2023-02-18T10:56:33;9.40;99.90
62904;DHT22;49000;50.698;13.322;2023-02-18T10:59:05;9.40;99.90
62904;DHT22;49000;50.698;13.322;2023-02-18T11:01:33;9.50;99.90
62904;DHT22;49000;50.698;13.322;2023-02-18T11:04:15;9.40;99.90
62904;DHT22;49000;50.698;13.322;2023-02-18T11:06:46;9.40;99.90
62904;DHT22;49000;50.698;13.322;2023-02-18T11:09:39;9.40;99.90
62904;DHT22;49000;50.698;13.322;2023-02-18T11:14:42;9.40;99.90
62904;DHT22;49000;50.698;13.322;2023-02-18T11:17:15;9.40;99.90
62904;DHT22;49000;50.698;13.322;2023-02-18T11:19:42;9.40;99.90
62904;DHT22;49000;50.698;13.322;2023-02-18T11:22:16;9.30;99.90
62904;DHT22;49000;50.698;13.322;2023-02-18T11:24:43;9.30;99.90
62904;DHT22;49000;50.698;13.322;2023-02-18T11:27:45;9.30;99.90
62904;DHT22;49000;50.698;13.322;2023-02-18T11:30:36;9.30;99.90
62904;DHT22;49000;50.698;13.322;2023-02-18T11:33:22;9.20;99.90
62904;DHT22;49000;50.698;13.322;2023-02-18T11:35:53;9.20;99.90
62904;DHT22;49000;50.698;13.322;2023-02-18T11:38:32;9.30;99.90
62904;DHT22;49000;50.698;13.322;2023-02-18T11:41:06;9.30;99.90
62904;DHT22;49000;50.698;13.322;2023-02-18T11:43:33;9.30;99.90
62904;DHT22;49000;50.698;13.322;2023-02-18T11:46:17;9.30;99.90
62904;DHT22;49000;50.698;13.322;2023-02-18T11:48:44;9.30;99.90
62904;DHT22;49000;50.698;13.322;2023-02-18T11:51:27;9.30;99.90
62904;DHT22;49000;50.698;13.322;2023-02-18T11:54:08;9.30;99.90
62904;DHT22;49000;50.698;13.322;2023-02-18T11:57:03;9.30;99.90
62904;DHT22;49000;50.698;13.322;2023-02-18T11:59:32;9.20;99.90
62904;DHT22;49000;50.698;13.322;2023-02-18T12:04:45;9.10;99.90
62904;DHT22;49000;50.698;13.322;2023-02-18T12:07:24;8.90;99.90
62904;DHT22;49000;50.698;13.322;2023-02-18T12:09:55;9.00;99.90
62904;DHT22;49000;50.698;13.322;2023-02-18T12:12:39;9.00;99.90
62904;DHT22;49000;50.698;13.322;2023-02-18T12:15:08;9.00;99.90
62904;DHT22;49000;50.698;13.322;2023-02-18T12:17:54;9.00;99.90
62904;DHT22;49000;50.698;13.322;2023-02-18T12:28:57;8.90;99.90
62904;DHT22;49000;50.698;13.322;2023-02-18T12:34:44;8.70;99.90
62904;DHT22;49000;50.698;13.322;2023-02-18T12:37:32;8.60;99.90
62904;DHT22;49000;50.698;13.322;2023-02-18T12:43:01;8.60;99.90
62904;DHT22;49000;50.698;13.322;2023-02-18T12:45:51;8.50;99.90
62904;DHT22;49000;50.698;13.322;2023-02-18T12:48:52;8.50;99.90
62904;DHT22;49000;50.698;13.322;2023-02-18T12:51:42;8.50;99.90
62904;DHT22;49000;50.698;13.322;2023-02-18T12:54:50;8.40;99.90
62904;DHT22;49000;50.698;13.322;2023-02-18T13:00:10;8.50;99.90
62904;DHT22;49000;50.698;13.322;2023-02-18T13:03:06;8.40;99.90
62904;DHT22;49000;50.698;13.322;2023-02-18T13:05:54;8.50;99.90
62904;DHT22;49000;50.698;13.322;2023-02-18T13:08:41;8.20;99.90
62904;DHT22;49000;50.698;13.322;2023-02-18T13:14:10;8.50;99.90
62904;DHT22;49000;50.698;13.322;2023-02-18T13:16:39;8.40;99.90
62904;DHT22;49000;50.698;13.322;2023-02-18T13:19:28;8.50;99.90
62904;DHT22;49000;50.698;13.322;2023-02-18T13:21:58;8.60;99.90
62904;DHT22;49000;50.698;13.322;2023-02-18T13:24:32;8.50;99.90
62904;DHT22;49000;50.698;13.322;2023-02-18T13:27:12;8.40;99.90
62904;DHT22;49000;50.698;13.322;2023-02-18T13:30:02;8.40;99.90
62904;DHT22;49000;50.698;13.322;2023-02-18T13:40:55;8.40;99.90
62904;DHT22;49000;50.698;13.322;2023-02-18T13:43:32;8.50;99.90
62904;DHT22;49000;50.698;13.322;2023-02-18T13:46:23;8.40;99.90
62904;DHT22;49000;50.698;13.322;2023-02-18T13:48:51;8.60;99.90
62904;DHT22;49000;50.698;13.322;2023-02-18T13:51:39;8.40;99.90
62904;DHT22;49000;50.698;13.322;2023-02-18T13:56:52;8.00;99.90
62904;DHT22;49000;50.698;13.322;2023-02-18T13:59:20;8.50;99.90
62904;DHT22;49000;50.698;13.322;2023-02-18T14:01:49;8.10;99.90
62904;DHT22;49000;50.698;13.322;2023-02-18T14:09:43;8.10;99.90
62904;DHT22;49000;50.698;13.322;2023-02-18T14:12:16;8.10;99.90
62904;DHT22;49000;50.698;13.322;2023-02-18T14:14:42;8.20;99.90
62904;DHT22;49000;50.698;13.322;2023-02-18T14:19:52;8.10;99.90
62904;DHT22;49000;50.698;13.322;2023-02-18T14:23:07;8.10;99.90
62904;DHT22;49000;50.698;13.322;2023-02-18T14:27:44;8.10;99.90
62904;DHT22;49000;50.698;13.322;2023-02-18T14:30:18;7.80;99.90
62904;DHT22;49000;50.698;13.322;2023-02-18T14:32:44;8.10;99.90
62904;DHT22;49000;50.698;13.322;2023-02-18T14:43:43;7.90;99.90
62904;DHT22;49000;50.698;13.322;2023-02-18T14:49:56;7.90;99.90
62904;DHT22;49000;50.698;13.322;2023-02-18T14:52:37;7.60;99.90
62904;DHT22;49000;50.698;13.322;2023-02-18T14:55:06;7.90;99.90
62904;DHT22;49000;50.698;13.322;2023-02-18T14:57:47;7.90;99.90
62904;DHT22;49000;50.698;13.322;2023-02-18T15:00:15;7.90;99.90
62904;DHT22;49000;50.698;13.322;2023-02-18T15:02:41;7.90;99.90
62904;DHT22;49000;50.698;13.322;2023-02-18T15:10:21;7.60;99.90
62904;DHT22;49000;50.698;13.322;2023-02-18T15:12:46;7.70;99.90
62904;DHT22;49000;50.698;13.322;2023-02-18T15:15:14;7.50;99.90
62904;DHT22;49000;50.698;13.322;2023-02-18T15:17:45;7.90;99.90
62904;DHT22;49000;50.698;13.322;2023-02-18T15:20:11;7.80;99.90
62904;DHT22;49000;50.698;13.322;2023-02-18T15:22:38;7.90;99.90
62904;DHT22;49000;50.698;13.322;2023-02-18T15:25:04;7.80;99.90
62904;DHT22;49000;50.698;13.322;2023-02-18T15:27:32;7.80;99.90
62904;DHT22;49000;50.698;13.322;2023-02-18T15:30:26;7.80;99.90
62904;DHT22;49000;50.698;13.322;2023-02-18T15:32:58;7.60;99.90
62904;DHT22;49000;50.698;13.322;2023-02-18T15:35:29;7.60;99.90
62904;DHT22;49000;50.698;13.322;2023-02-18T15:37:57;7.80;99.90
62904;DHT22;49000;50.698;13.322;2023-02-18T15:40:28;7.70;99.90
62904;DHT22;49000;50.698;13.322;2023-02-18T15:42:57;7.60;99.90
62904;DHT22;49000;50.698;13.322;2023-02-18T15:45:38;7.60;99.90
62904;DHT22;49000;50.698;13.322;2023-02-18T15:48:05;7.70;99.90
62904;DHT22;49000;50.698;13.322;2023-02-18T15:50:34;7.60;99.90
62904;DHT22;49000;50.698;13.322;2023-02-18T15:53:08;7.50;99.90
62904;DHT22;49000;50.698;13.322;2023-02-18T15:55:41;7.40;99.90
62904;DHT22;49000;50.698;13.322;2023-02-18T16:03:46;7.60;99.90
62904;DHT22;49000;50.698;13.322;2023-02-18T16:06:23;7.30;99.90
62904;DHT22;49000;50.698;13.322;2023-02-18T16:09:13;7.60;99.90
62904;DHT22;49000;50.698;13.322;2023-02-18T16:11:47;7.50;99.90
62904;DHT22;49000;50.698;13.322;2023-02-18T16:14:34;7.30;99.90
62904;DHT22;49000;50.698;13.322;2023-02-18T16:17:21;7.10;99.90
62904;DHT22;49000;50.698;13.322;2023-02-18T16:19:48;7.40;99.90
62904;DHT22;49000;50.698;13.322;2023-02-18T16:22:25;7.70;99.90
62904;DHT22;49000;50.698;13.322;2023-02-18T16:24:58;7.20;99.90
62904;DHT22;49000;50.698;13.322;2023-02-18T16:27:37;7.10;99.90
62904;DHT22;49000;50.698;13.322;2023-02-18T16:30:14;7.10;99.90
62904;DHT22;49000;50.698;13.322;2023-02-18T16:32:41;7.40;99.90
62904;DHT22;49000;50.698;13.322;2023-02-18T16:35:07;7.20;99.90
62904;DHT22;49000;50.698;13.322;2023-02-18T16:37:32;7.30;99.90
62904;DHT22;49000;50.698;13.322;2023-02-18T16:40:23;7.30;99.90
62904;DHT22;49000;50.698;13.322;2023-02-18T16:42:49;7.30;99.90
62904;DHT22;49000;50.698;13.322;2023-02-18T16:45:15;7.30;99.90
62904;DHT22;49000;50.698;13.322;2023-02-18T16:47:46;6.90;99.90
62904;DHT22;49000;50.698;13.322;2023-02-18T16:50:20;7.30;99.90
62904;DHT22;49000;50.698;13.322;2023-02-18T16:52:46;7.30;99.90
62904;DHT22;49000;50.698;13.322;2023-02-18T16:57:42;7.40;99.90
62904;DHT22;49000;50.698;13.322;2023-02-18T17:00:08;7.00;99.90
62904;DHT22;49000;50.698;13.322;2023-02-18T17:02:33;7.20;99.90
62904;DHT22;49000;50.698;13.322;2023-02-18T17:05:00;7.00;99.90
62904;DHT22;49000;50.698;13.322;2023-02-18T17:07:25;7.10;99.90
62904;DHT22;49000;50.698;13.322;2023-02-18T17:09:50;6.80;99.90
62904;DHT22;49000;50.698;13.322;2023-02-18T17:12:16;6.70;99.90
62904;DHT22;49000;50.698;13.322;2023-02-18T17:14:41;6.90;99.90
62904;DHT22;49000;50.698;13.322;2023-02-18T17:17:10;7.10;99.90
62904;DHT22;49000;50.698;13.322;2023-02-18T17:19:38;6.90;99.90
62904;DHT22;49000;50.698;13.322;2023-02-18T17:22:03;6.70;99.90
62904;DHT22;49000;50.698;13.322;2023-02-18T17:24:29;7.30;99.90
62904;DHT22;49000;50.698;13.322;2023-02-18T17:26:54;7.10;99.90
62904;DHT22;49000;50.698;13.322;2023-02-18T17:29:20;6.90;99.90
62904;DHT22;49000;50.698;13.322;2023-02-18T17:31:46;7.10;99.90
62904;DHT22;49000;50.698;13.322;2023-02-18T17:34:16;6.70;99.90
62904;DHT22;49000;50.698;13.322;2023-02-18T17:36:44;7.10;99.90